createdAt,value
2019-04-20T00:00:46.872Z,102252.52
2019-04-20T00:03:13.862Z,102258.83
2019-04-20T00:05:46.239Z,102251.98
2019-04-20T00:08:22.614Z,102248.61
2019-04-20T00:10:55.074Z,102252.64
2019-04-20T00:13:28.966Z,102251.81
2019-04-20T00:15:47.239Z,102247.36
2019-04-20T00:18:19.156Z,102246.47
2019-04-20T00:21:00.256Z,102257.39
2019-04-20T00:29:30.921Z,102246.01
2019-04-20T00:31:56.554Z,102234.94
2019-04-20T00:34:22.875Z,102241.59
2019-04-20T00:36:45.351Z,102238.13
2019-04-20T00:39:17.185Z,102242.56
2019-04-20T00:41:53.114Z,102246.22
2019-04-20T00:44:23.337Z,102246.31
2019-04-20T00:47:02.067Z,102238.05
2019-04-20T00:49:32.217Z,102238.91
2019-04-20T00:52:15.195Z,102236.64
2019-04-20T00:54:18.535Z,102233.50
2019-04-20T00:56:49.837Z,102223.33
2019-04-20T00:59:32.081Z,102231.72
2019-04-20T01:02:09.061Z,102230.41
2019-04-20T01:04:46.231Z,102226.84
2019-04-20T01:07:29.823Z,102229.11
2019-04-20T01:10:13.604Z,102229.11
2019-04-20T01:12:44.417Z,102227.80
2019-04-20T01:15:24.457Z,102225.33
2019-04-20T01:17:44.886Z,102229.73
2019-04-20T01:20:13.798Z,102229.77
2019-04-20T01:22:52.272Z,102225.69
2019-04-20T01:25:22.124Z,102234.05
2019-04-20T01:28:04.519Z,102234.56
2019-04-20T01:30:26.896Z,102234.56
2019-04-20T01:32:59.932Z,102232.84
2019-04-20T01:35:36.498Z,102232.86
2019-04-20T01:38:07.337Z,102229.38
2019-04-20T01:40:21.186Z,102232.00
2019-04-20T01:42:51.196Z,102235.50
2019-04-20T01:45:26.783Z,102237.69
2019-04-20T01:47:54.437Z,102230.70
2019-04-20T01:50:28.402Z,102230.70
2019-04-20T01:53:06.918Z,102233.41
2019-04-20T01:55:55.390Z,102231.72
2019-04-20T01:58:25.506Z,102231.33
2019-04-20T02:00:44.999Z,102231.33
2019-04-20T02:03:36.927Z,102235.70
2019-04-20T02:06:06.172Z,102235.70
2019-04-20T02:08:34.164Z,102244.56
2019-04-20T02:11:07.386Z,102244.56
2019-04-20T02:13:42.321Z,102242.77
2019-04-20T02:16:15.802Z,102239.71
2019-04-20T02:18:58.032Z,102241.45
2019-04-20T02:21:29.990Z,102240.14
2019-04-20T02:23:48.019Z,102239.28
2019-04-20T02:26:12.902Z,102234.40
2019-04-20T02:29:06.967Z,102232.28
2019-04-20T02:31:55.379Z,102237.14
2019-04-20T02:37:45.062Z,102237.98
2019-04-20T02:40:07.145Z,102241.94
2019-04-20T02:42:46.278Z,102245.52
2019-04-20T02:47:45.602Z,102237.19
2019-04-20T02:55:22.616Z,102244.20
2019-04-20T03:00:22.070Z,102240.73
2019-04-20T03:02:41.211Z,102236.32
2019-04-20T03:05:12.232Z,102241.59
2019-04-20T03:07:54.419Z,102240.73
2019-04-20T03:10:26.607Z,102238.97
2019-04-20T03:12:59.762Z,102234.63
2019-04-20T03:15:31.423Z,102233.77
2019-04-20T03:17:59.669Z,102240.77
2019-04-20T03:20:27.082Z,102237.27
2019-04-20T03:23:18.754Z,102227.67
2019-04-20T03:26:12.839Z,102235.58
2019-04-20T03:28:54.288Z,102231.64
2019-04-20T03:31:53.725Z,102228.59
2019-04-20T03:34:27.515Z,102235.16
2019-04-20T03:36:41.488Z,102233.86
2019-04-20T03:39:07.022Z,102229.05
2019-04-20T03:41:22.467Z,102229.05
2019-04-20T03:43:47.721Z,102231.65
2019-04-20T03:46:30.160Z,102231.20
2019-04-20T03:49:05.709Z,102230.77
2019-04-20T03:51:46.987Z,102232.98
2019-04-20T03:54:19.933Z,102233.84
2019-04-20T03:57:17.016Z,102229.48
2019-04-20T03:59:50.866Z,102234.75
2019-04-20T04:02:45.455Z,102239.98
2019-04-20T04:05:08.827Z,102232.54
2019-04-20T04:07:36.291Z,102234.72
2019-04-20T04:10:14.077Z,102237.80
2019-04-20T04:13:07.582Z,102237.84
2019-04-20T04:15:46.805Z,102237.37
2019-04-20T04:18:13.597Z,102239.14
2019-04-20T04:20:45.513Z,102239.16
2019-04-20T04:23:28.671Z,102246.61
2019-04-20T04:26:04.082Z,102249.21
2019-04-20T04:28:31.065Z,102250.96
2019-04-20T04:31:09.442Z,102246.16
2019-04-20T04:36:10.069Z,102253.17
2019-04-20T04:38:57.078Z,102258.85
2019-04-20T04:41:19.625Z,102257.55
2019-04-20T04:43:44.383Z,102260.58
2019-04-20T04:45:57.423Z,102251.20
2019-04-20T04:48:32.099Z,102251.20
2019-04-20T04:51:03.432Z,102252.89
2019-04-20T04:53:42.891Z,102249.34
2019-04-20T04:56:05.826Z,102257.92
2019-04-20T04:58:31.931Z,102257.02
2019-04-20T05:01:07.724Z,102256.55
2019-04-20T05:03:58.203Z,102258.45
2019-04-20T05:06:45.185Z,102265.42
2019-04-20T05:09:03.850Z,102268.72
2019-04-20T05:11:30.413Z,102272.22
2019-04-20T05:14:05.641Z,102265.72
2019-04-20T05:16:50.083Z,102264.23
2019-04-20T05:19:24.745Z,102274.20
2019-04-20T05:24:56.707Z,102268.66
2019-04-20T05:27:51.191Z,102271.77
2019-04-20T05:30:05.794Z,102271.74
2019-04-20T05:32:44.963Z,102268.80
2019-04-20T05:35:27.085Z,102267.78
2019-04-20T05:38:05.064Z,102271.53
2019-04-20T05:40:35.538Z,102271.56
2019-04-20T05:43:15.481Z,102271.13
2019-04-20T05:45:41.656Z,102270.87
2019-04-20T05:48:19.461Z,102275.02
2019-04-20T05:50:49.336Z,102274.23
2019-04-20T05:53:20.245Z,102270.80
2019-04-20T05:55:49.311Z,102272.91
2019-04-20T05:58:26.338Z,102274.53
2019-04-20T06:01:01.613Z,102276.46
2019-04-20T06:03:25.847Z,102274.26
2019-04-20T06:06:03.787Z,102275.91
2019-04-20T06:08:38.975Z,102276.50
2019-04-20T06:10:56.228Z,102280.14
2019-04-20T06:13:47.063Z,102280.56
2019-04-20T06:16:29.875Z,102273.69
2019-04-20T06:19:18.224Z,102272.01
2019-04-20T06:21:45.750Z,102279.19
2019-04-20T06:24:27.402Z,102278.95
2019-04-20T06:27:03.214Z,102271.64
2019-04-20T06:29:22.532Z,102275.72
2019-04-20T06:31:58.090Z,102275.89
2019-04-20T06:34:33.392Z,102277.91
2019-04-20T06:37:02.138Z,102271.17
2019-04-20T06:39:40.427Z,102274.62
2019-04-20T06:44:35.648Z,102274.22
2019-04-20T06:47:13.523Z,102281.84
2019-04-20T06:49:36.864Z,102282.05
2019-04-20T06:52:20.254Z,102281.41
2019-04-20T06:55:01.058Z,102286.34
2019-04-20T06:57:34.765Z,102279.91
2019-04-20T07:00:07.448Z,102286.38
2019-04-20T07:02:41.488Z,102273.33
2019-04-20T07:07:36.276Z,102285.38
2019-04-20T07:10:14.087Z,102278.33
2019-04-20T07:12:39.587Z,102283.63
2019-04-20T07:15:08.420Z,102278.45
2019-04-20T07:20:39.587Z,102277.19
2019-04-20T07:25:37.548Z,102279.75
2019-04-20T07:28:05.370Z,102281.41
2019-04-20T07:30:42.433Z,102283.05
2019-04-20T07:33:08.783Z,102286.50
2019-04-20T07:35:46.185Z,102280.55
2019-04-20T07:38:29.679Z,102280.55
2019-04-20T07:40:38.457Z,102282.53
2019-04-20T07:43:12.304Z,102282.31
2019-04-20T07:45:37.608Z,102283.77
2019-04-20T07:48:16.726Z,102276.83
2019-04-20T07:50:40.802Z,102279.36
2019-04-20T07:53:16.790Z,102275.16
2019-04-20T07:58:12.246Z,102272.63
2019-04-20T08:01:02.563Z,102271.97
2019-04-20T08:03:45.954Z,102265.46
2019-04-20T08:06:21.176Z,102267.77
2019-04-20T08:09:04.067Z,102263.90
2019-04-20T08:11:37.977Z,102260.31
2019-04-20T08:14:12.520Z,102258.92
2019-04-20T08:16:49.142Z,102258.49
2019-04-20T08:19:07.862Z,102256.41
2019-04-20T08:21:43.736Z,102256.41
2019-04-20T08:24:07.617Z,102258.76
2019-04-20T08:26:28.876Z,102257.80
2019-04-20T08:29:09.215Z,102269.30
2019-04-20T08:32:02.750Z,102263.34
2019-04-20T08:34:39.809Z,102261.16
2019-04-20T08:37:01.023Z,102258.68
2019-04-20T08:39:48.156Z,102255.88
2019-04-20T08:42:07.451Z,102256.59
2019-04-20T08:44:53.718Z,102250.34
2019-04-20T08:47:24.200Z,102249.11
2019-04-20T08:49:42.697Z,102250.45
2019-04-20T08:52:31.952Z,102246.97
2019-04-20T08:54:34.514Z,102246.98
2019-04-20T08:56:56.387Z,102239.34
2019-04-20T08:59:23.762Z,102230.17
2019-04-20T09:01:58.125Z,102239.29
2019-04-20T09:04:37.109Z,102236.30
2019-04-20T09:07:09.541Z,102233.33
2019-04-20T09:09:56.371Z,102223.16
2019-04-20T09:12:14.480Z,102224.97
2019-04-20T09:14:37.964Z,102219.36
2019-04-20T09:17:23.028Z,102221.33
2019-04-20T09:19:55.786Z,102218.03
2019-04-20T09:22:46.697Z,102224.15
2019-04-20T09:25:43.079Z,102222.47
2019-04-20T09:27:44.969Z,102225.22
2019-04-20T09:30:25.688Z,102215.59
2019-04-20T09:33:09.625Z,102219.09
2019-04-20T09:35:37.114Z,102221.33
2019-04-20T09:38:12.177Z,102218.89
2019-04-20T09:40:45.987Z,102218.17
2019-04-20T09:43:30.376Z,102209.89
2019-04-20T09:46:04.605Z,102216.40
2019-04-20T09:48:34.689Z,102212.75
2019-04-20T09:51:20.335Z,102211.70
2019-04-20T09:53:43.203Z,102213.84
2019-04-20T09:56:18.152Z,102220.47
2019-04-20T09:58:55.092Z,102208.64
2019-04-20T10:01:18.152Z,102208.70
2019-04-20T10:03:34.573Z,102204.67
2019-04-20T10:06:03.543Z,102204.57
2019-04-20T10:08:35.956Z,102200.50
2019-04-20T10:11:03.518Z,102204.12
2019-04-20T10:13:34.365Z,102201.80
2019-04-20T10:16:03.841Z,102201.61
2019-04-20T10:18:34.247Z,102193.23
2019-04-20T10:21:03.434Z,102195.63
2019-04-20T10:23:32.534Z,102195.93
2019-04-20T10:26:01.049Z,102197.38
2019-04-20T10:28:33.852Z,102193.33
2019-04-20T10:31:04.327Z,102190.45
2019-04-20T10:33:33.545Z,102192.36
2019-04-20T10:36:03.544Z,102175.14
2019-04-20T10:38:35.594Z,102184.21
2019-04-20T10:41:11.261Z,102191.33
2019-04-20T10:43:33.335Z,102183.25
2019-04-20T10:46:06.807Z,102184.48
2019-04-20T10:48:41.593Z,102187.38
2019-04-20T10:51:08.251Z,102179.67
2019-04-20T10:53:38.358Z,102181.97
2019-04-20T10:56:09.587Z,102172.53
2019-04-20T10:58:40.812Z,102179.28
2019-04-20T11:01:11.551Z,102182.17
2019-04-20T11:03:40.691Z,102181.48
2019-04-20T11:06:11.082Z,102178.97
2019-04-20T11:08:40.480Z,102175.23
2019-04-20T11:11:16.401Z,102177.92
2019-04-20T11:13:43.439Z,102173.77
2019-04-20T11:16:14.839Z,102159.56
2019-04-20T11:18:45.298Z,102162.34
2019-04-20T11:21:13.841Z,102163.90
2019-04-20T11:23:46.607Z,102158.95
2019-04-20T11:26:18.133Z,102147.69
2019-04-20T11:28:46.752Z,102155.11
2019-04-20T11:31:16.586Z,102146.16
2019-04-20T11:33:48.251Z,102147.91
2019-04-20T11:36:21.480Z,102145.19
2019-04-20T11:38:51.168Z,102136.20
2019-04-20T11:41:26.130Z,102129.14
2019-04-20T11:43:54.048Z,102133.05
2019-04-20T11:46:22.848Z,102128.33
2019-04-20T11:48:51.954Z,102126.19
2019-04-20T11:51:23.373Z,102121.44
2019-04-20T11:53:54.348Z,102118.19
2019-04-20T11:56:32.945Z,102123.41
2019-04-20T11:58:56.817Z,102117.67
2019-04-20T12:01:53.062Z,102117.59
2019-04-20T12:04:32.775Z,102121.05
2019-04-20T12:06:52.882Z,102117.67
2019-04-20T12:09:21.711Z,102119.20
2019-04-20T12:12:04.252Z,102111.36
2019-04-20T12:14:22.970Z,102110.97
2019-04-20T12:16:53.418Z,102107.56
2019-04-20T12:19:22.918Z,102106.37
2019-04-20T12:21:51.764Z,102102.27
2019-04-20T12:24:20.712Z,102109.73
2019-04-20T12:26:50.976Z,102097.64
2019-04-20T12:29:19.719Z,102098.52
2019-04-20T12:31:53.789Z,102098.63
2019-04-20T12:34:20.483Z,102094.67
2019-04-20T12:36:55.169Z,102094.29
2019-04-20T12:39:24.894Z,102096.31
2019-04-20T12:42:00.483Z,102083.53
2019-04-20T12:44:28.038Z,102088.47
2019-04-20T12:46:57.208Z,102091.75
2019-04-20T12:49:27.617Z,102087.66
2019-04-20T12:52:00.221Z,102078.10
2019-04-20T12:54:26.998Z,102080.35
2019-04-20T12:56:56.344Z,102077.33
2019-04-20T12:59:25.621Z,102076.13
2019-04-20T13:01:55.412Z,102071.56
2019-04-20T13:04:24.697Z,102077.73
2019-04-20T13:06:57.581Z,102070.14
2019-04-20T13:09:28.658Z,102065.59
2019-04-20T13:12:06.990Z,102054.64
2019-04-20T13:15:02.853Z,102063.39
2019-04-20T13:17:35.120Z,102059.14
2019-04-20T13:20:05.860Z,102055.67
2019-04-20T13:22:34.940Z,102048.32
2019-04-20T13:25:03.689Z,102044.70
2019-04-20T13:27:32.769Z,102040.22
2019-04-20T13:30:02.923Z,102039.98
2019-04-20T13:32:31.949Z,102039.14
2019-04-20T13:35:00.512Z,102038.09
2019-04-20T13:37:29.098Z,102038.03
2019-04-20T13:40:00.690Z,102034.05
2019-04-20T13:42:31.416Z,102031.45
2019-04-20T13:45:01.056Z,102032.70
2019-04-20T13:47:30.561Z,102031.95
2019-04-20T13:50:01.092Z,102018.59
2019-04-20T13:52:30.940Z,102029.75
2019-04-20T13:55:05.309Z,102012.41
2019-04-20T13:57:47.159Z,102014.54
2019-04-20T14:00:34.408Z,102011.56
2019-04-20T14:03:07.031Z,102016.23
2019-04-20T14:05:38.513Z,102005.45
2019-04-20T14:08:09.560Z,102004.45
2019-04-20T14:10:39.682Z,102001.38
2019-04-20T14:13:14.823Z,102006.34
2019-04-20T14:15:40.936Z,101993.78
2019-04-20T14:18:11.137Z,101993.47
2019-04-20T14:20:42.832Z,101993.20
2019-04-20T14:23:12.738Z,101981.70
2019-04-20T14:25:44.772Z,101986.69
2019-04-20T14:28:15.414Z,101981.72
2019-04-20T14:30:47.839Z,101974.02
2019-04-20T14:33:18.940Z,101971.30
2019-04-20T14:35:48.374Z,101968.50
2019-04-20T14:38:17.692Z,101970.53
2019-04-20T14:40:46.420Z,101964.41
2019-04-20T14:43:17.194Z,101961.50
2019-04-20T14:45:48.154Z,101964.77
2019-04-20T14:48:18.615Z,101957.63
2019-04-20T14:50:47.776Z,101954.84
2019-04-20T14:53:19.750Z,101952.17
2019-04-20T14:55:49.336Z,101952.64
2019-04-20T14:58:43.403Z,101946.01
2019-04-20T15:01:30.308Z,101951.41
2019-04-20T15:04:04.786Z,101945.48
2019-04-20T15:06:36.154Z,101939.38
2019-04-20T15:09:06.340Z,101939.46
2019-04-20T15:11:38.169Z,101935.93
2019-04-20T15:14:07.132Z,101934.20
2019-04-20T15:16:38.498Z,101924.45
2019-04-20T15:19:27.532Z,101931.67
2019-04-20T15:21:59.808Z,101925.91
2019-04-20T15:24:31.550Z,101929.77
2019-04-20T15:26:58.759Z,101922.19
2019-04-20T15:29:28.513Z,101921.55
2019-04-20T15:31:57.710Z,101921.53
2019-04-20T15:34:26.766Z,101919.89
2019-04-20T15:36:56.045Z,101920.42
2019-04-20T15:39:27.369Z,101911.70
2019-04-20T15:41:57.077Z,101911.23
2019-04-20T15:44:27.146Z,101907.91
2019-04-20T15:46:57.327Z,101907.00
2019-04-20T15:49:28.387Z,101909.53
2019-04-20T15:51:59.732Z,101907.02
2019-04-20T15:54:29.615Z,101912.77
2019-04-20T15:57:07.517Z,101906.27
2019-04-20T15:59:32.518Z,101914.94
2019-04-20T16:02:09.430Z,101912.96
2019-04-20T16:05:04.054Z,101911.97
2019-04-20T16:07:40.638Z,101911.45
2019-04-20T16:10:05.359Z,101905.45
2019-04-20T16:12:35.190Z,101905.22
2019-04-20T16:15:07.336Z,101909.39
2019-04-20T16:17:39.067Z,101907.16
2019-04-20T16:20:12.575Z,101904.91
2019-04-20T16:22:38.434Z,101904.77
2019-04-20T16:25:23.483Z,101903.36
2019-04-20T16:27:52.158Z,101902.62
2019-04-20T16:30:23.382Z,101901.02
2019-04-20T16:32:54.645Z,101897.25
2019-04-20T16:35:24.480Z,101893.76
2019-04-20T16:37:53.244Z,101896.84
2019-04-20T16:40:23.302Z,101895.22
2019-04-20T16:42:52.362Z,101888.95
2019-04-20T16:45:23.274Z,101885.24
2019-04-20T16:47:52.505Z,101889.58
2019-04-20T16:50:22.492Z,101885.92
2019-04-20T16:52:52.653Z,101875.59
2019-04-20T16:55:25.020Z,101880.73
2019-04-20T16:57:55.413Z,101879.68
2019-04-20T17:00:25.432Z,101879.59
2019-04-20T17:02:58.453Z,101874.81
2019-04-20T17:05:27.623Z,101870.09
2019-04-20T17:07:57.401Z,101871.80
2019-04-20T17:10:28.855Z,101866.30
2019-04-20T17:12:57.810Z,101866.65
2019-04-20T17:15:29.745Z,101867.09
2019-04-20T17:18:01.688Z,101864.97
2019-04-20T17:20:30.746Z,101869.19
2019-04-20T17:23:00.378Z,101868.57
2019-04-20T17:25:34.025Z,101866.67
2019-04-20T17:28:20.842Z,101864.42
2019-04-20T17:31:11.790Z,101867.13
2019-04-20T17:34:41.412Z,101864.31
2019-04-20T17:36:52.866Z,101864.29
2019-04-20T17:39:33.957Z,101864.20
2019-04-20T17:42:07.535Z,101866.67
2019-04-20T17:44:44.212Z,101871.23
2019-04-20T17:47:20.531Z,101869.82
2019-04-20T17:49:43.749Z,101869.24
2019-04-20T17:52:26.531Z,101866.55
2019-04-20T17:54:45.650Z,101864.90
2019-04-20T17:57:15.263Z,101864.30
2019-04-20T17:59:53.265Z,101863.54
2019-04-20T18:02:49.372Z,101870.58
2019-04-20T18:05:37.138Z,101870.98
2019-04-20T18:08:09.364Z,101875.14
2019-04-20T18:10:31.219Z,101874.78
2019-04-20T18:12:50.387Z,101880.37
2019-04-20T18:15:34.864Z,101876.63
2019-04-20T18:18:28.492Z,101880.00
2019-04-20T18:20:48.518Z,101873.60
2019-04-20T18:23:25.543Z,101880.61
2019-04-20T18:26:17.297Z,101879.70
2019-04-20T18:28:46.722Z,101874.78
2019-04-20T18:31:21.799Z,101880.31
2019-04-20T18:33:54.089Z,101882.19
2019-04-20T18:36:30.629Z,101887.70
2019-04-20T18:38:59.492Z,101889.22
2019-04-20T18:41:34.313Z,101891.27
2019-04-20T18:43:59.013Z,101893.59
2019-04-20T18:46:49.850Z,101891.01
2019-04-20T18:49:16.755Z,101896.48
2019-04-20T18:51:29.997Z,101897.23
2019-04-20T18:54:05.688Z,101893.48
2019-04-20T18:56:38.309Z,101897.58
2019-04-20T18:59:03.113Z,101898.63
2019-04-20T19:01:34.896Z,101896.65
2019-04-20T19:04:02.112Z,101890.77
2019-04-20T19:06:31.831Z,101894.45
2019-04-20T19:09:00.882Z,101897.20
2019-04-20T19:11:30.803Z,101898.17
2019-04-20T19:14:32.528Z,101896.89
2019-04-20T19:17:05.795Z,101903.70
2019-04-20T19:19:39.883Z,101908.56
2019-04-20T19:22:06.045Z,101907.43
2019-04-20T19:24:37.890Z,101907.69
2019-04-20T19:27:10.669Z,101902.71
2019-04-20T19:29:47.287Z,101910.50
2019-04-20T19:32:24.964Z,101902.05
2019-04-20T19:34:52.663Z,101903.44
2019-04-20T19:37:20.378Z,101909.31
2019-04-20T19:39:54.725Z,101905.23
2019-04-20T19:42:33.268Z,101909.34
2019-04-20T19:45:01.931Z,101908.50
2019-04-20T19:47:36.888Z,101910.34
2019-04-20T19:50:23.813Z,101908.70
2019-04-20T19:52:44.414Z,101912.38
2019-04-20T19:55:06.981Z,101917.31
2019-04-20T19:57:39.834Z,101911.52
2019-04-20T19:59:55.823Z,101914.87
2019-04-20T20:02:23.607Z,101915.03
2019-04-20T20:05:00.510Z,101909.13
2019-04-20T20:07:30.994Z,101914.14
2019-04-20T20:10:00.496Z,101915.66
2019-04-20T20:12:27.305Z,101914.23
2019-04-20T20:14:57.445Z,101920.28
2019-04-20T20:17:50.841Z,101921.33
2019-04-20T20:20:20.028Z,101919.31
2019-04-20T20:22:34.791Z,101916.72
2019-04-20T20:24:58.973Z,101918.52
2019-04-20T20:27:37.712Z,101920.76
2019-04-20T20:30:11.959Z,101919.97
2019-04-20T20:32:47.047Z,101916.31
2019-04-20T20:35:09.133Z,101909.72
2019-04-20T20:37:44.794Z,101919.66
2019-04-20T20:40:16.033Z,101914.33
2019-04-20T20:42:54.071Z,101916.42
2019-04-20T20:45:18.784Z,101914.02
2019-04-20T20:48:01.622Z,101913.39
2019-04-20T20:52:58.457Z,101921.58
2019-04-20T20:55:29.201Z,101921.57
2019-04-20T20:57:59.305Z,101917.91
2019-04-20T21:00:34.421Z,101924.61
2019-04-20T21:02:59.255Z,101920.98
2019-04-20T21:05:22.010Z,101920.06
2019-04-20T21:07:51.426Z,101918.44
2019-04-20T21:10:25.849Z,101917.66
2019-04-20T21:12:55.385Z,101919.48
2019-04-20T21:15:24.206Z,101920.84
2019-04-20T21:18:17.391Z,101918.32
2019-04-20T21:20:44.407Z,101918.08
2019-04-20T21:23:13.565Z,101913.91
2019-04-20T21:25:37.769Z,101915.73
2019-04-20T21:28:04.797Z,101912.92
2019-04-20T21:30:41.572Z,101915.99
2019-04-20T21:33:07.832Z,101914.60
2019-04-20T21:35:44.584Z,101913.59
2019-04-20T21:38:12.058Z,101909.16
2019-04-20T21:40:41.454Z,101910.48
2019-04-20T21:43:10.968Z,101913.26
2019-04-20T21:45:47.859Z,101911.14
2019-04-20T21:48:32.964Z,101908.23
2019-04-20T21:50:59.745Z,101907.70
2019-04-20T21:53:19.720Z,101908.72
2019-04-20T21:55:41.892Z,101905.09
2019-04-20T21:58:14.046Z,101903.05
2019-04-20T22:01:05.058Z,101902.39
2019-04-20T22:03:26.988Z,101899.30
2019-04-20T22:06:04.847Z,101896.62
2019-04-20T22:08:34.649Z,101902.30
2019-04-20T22:11:04.015Z,101906.28
2019-04-20T22:13:38.088Z,101902.95
2019-04-20T22:16:07.224Z,101904.77
2019-04-20T22:18:46.365Z,101902.10
2019-04-20T22:21:14.728Z,101900.55
2019-04-20T22:23:54.606Z,101900.23
2019-04-20T22:26:17.620Z,101902.50
2019-04-20T22:28:38.298Z,101903.04
2019-04-20T22:31:09.589Z,101896.52
2019-04-20T22:33:41.291Z,101892.91
2019-04-20T22:36:11.345Z,101883.69
2019-04-20T22:39:07.345Z,101888.82
2019-04-20T22:41:40.663Z,101878.32
2019-04-20T22:44:15.189Z,101883.71
2019-04-20T22:46:44.029Z,101877.00
2019-04-20T22:49:32.983Z,101876.71
2019-04-20T22:51:53.206Z,101876.71
2019-04-20T22:54:35.623Z,101882.08
2019-04-20T22:56:58.621Z,101869.16
2019-04-20T22:59:22.858Z,101858.79
2019-04-20T23:01:53.452Z,101867.60
2019-04-20T23:04:19.160Z,101856.72
2019-04-20T23:06:52.364Z,101856.72
2019-04-20T23:09:20.611Z,101853.02
2019-04-20T23:11:49.514Z,101851.77
2019-04-20T23:14:22.678Z,101851.77
2019-04-20T23:16:57.058Z,101854.82
2019-04-20T23:19:34.289Z,101850.36
2019-04-20T23:21:59.725Z,101848.55
2019-04-20T23:24:26.938Z,101844.06
2019-04-20T23:26:55.744Z,101835.72
2019-04-20T23:29:27.205Z,101840.05
2019-04-20T23:31:59.682Z,101844.30
2019-04-20T23:34:28.837Z,101845.09
2019-04-20T23:36:56.751Z,101829.03
2019-04-20T23:39:34.762Z,101825.11
2019-04-20T23:42:04.031Z,101826.48
2019-04-20T23:44:35.712Z,101831.94
2019-04-20T23:47:27.796Z,101833.39
2019-04-20T23:50:16.287Z,101839.47
2019-04-20T23:52:55.125Z,101832.39
2019-04-20T23:55:05.928Z,101832.39
2019-04-20T23:57:33.606Z,101836.73
